• Join FlightAware (Why Join?)
  • Login
  • US Flag 
11:02PM EDT


 

Airport Tracker/Info


-or-


 

Live Flight TrackerFlight Track Log ✈ SBE607 ✈ 25-Feb-2014 ✈ KSAT - KADS

Flight Track Log - Related Links

Times and Time Zones

All times are in EST time to prevent confusion due to time zone crossing. See the SBE607 flight status page for this flight to view local times or setup timezone preferences in your user account.

Time Position Orientation Groundspeed Altitude Reporting Facility
EST Latitude Longitude Course Direction KTS MPH feet Rate Location/Type
05:00PM 29.5133 -98.4508 142° Southeast 192 221 3,200  Level Houston Center
05:00PM 29.4850 -98.4206 137° Southeast 237 273 5,900 4,320 Climbing Houston Center
05:01PM 29.4725 -98.3836 111° Southeast 258 297 7,700 4,200 Climbing Houston Center
05:02PM 29.5328 -98.3269 39° Northeast 299 344 12,200 2,940 Climbing Houston Center
05:03PM 29.6292 -98.3453 351° North 366 421 13,900 2,520 Climbing Houston Center
05:04PM 29.7492 -98.3575 355° North 401 461 17,500 3,240 Climbing Houston Center
05:05PM 29.8603 -98.3681 355° North 402 463 20,700 2,640 Climbing Houston Center
05:06PM 29.9811 -98.3800 355° North 403 464 23,000 1,080 Climbing Houston Center
05:07PM 30.1036 -98.3925 355° North 438 504 23,000  Level Houston Center
05:08PM 30.2386 -98.3733 North 455 524 23,000  Level Houston Center
05:09PM 30.3450 -98.3578 North 454 522 23,000  Level Houston Center
05:10PM 30.4928 -98.3364 North 452 520 23,000  Level Houston Center
05:11PM 30.6208 -98.3178 North 455 524 23,000  Level Houston Center
05:12PM 30.7489 -98.2986 North 456 525 23,000  Level Houston Center
05:13PM 30.8753 -98.2792 North 454 522 23,000  Level Houston Center
05:14PM 31.0003 -98.2611 North 449 517 23,000  Level Houston Center
05:15PM 31.1258 -98.2425 North 447 514 23,000  Level Houston Center
05:16PM 31.2514 -98.2236 North 449 517 23,000  Level Houston Center
05:17PM 31.3667 -98.1519 28° Northeast 468 539 23,000  Level Fort Worth Center
05:18PM 31.4806 -98.0700 32° Northeast 473 544 23,000  Level Fort Worth Center
05:19PM 31.5986 -97.9844 32° Northeast 487 560 23,000  Level Fort Worth Center
05:20PM 31.7150 -97.8997 32° Northeast 486 559 23,000 -780 Level Fort Worth Center
05:21PM 31.8500 -97.8014 32° Northeast 482 555 21,500 -2,040 Descending Fort Worth Center
05:22PM 31.9647 -97.7194 31° Northeast 469 540 18,900 -2,520 Descending Fort Worth Center
05:23PM 32.0706 -97.6431 31° Northeast 439 505 16,400 -2,340 Descending Fort Worth Center
05:24PM 32.1697 -97.5689 32° Northeast 426 490 14,100 -2,220 Descending Fort Worth Center
05:25PM 32.2725 -97.4925 32° Northeast 407 468 11,800 -1,860 Descending Fort Worth Center
05:26PM 32.3508 -97.4200 38° Northeast 363 418 10,300 -1,500 Descending Fort Worth Center
05:28PM 32.3836 -97.3189 69° East 322 371 8,700 -1,500 Descending Fort Worth Center
05:29PM 32.4017 -97.2189 78° East 316 364 7,200 -1,500 Descending Fort Worth Center
05:30PM 32.3986 -97.1186 92° East 292 336 5,600 -1,500 Descending Fort Worth Center
05:31PM 32.3969 -97.0286 91° East 278 320 4,100 -780 Descending Fort Worth Center
05:32PM 32.3953 -96.9328 91° East 272 313 4,000 -60 Descending Fort Worth Center
05:33PM 32.4167 -96.8506 73° East 286 329 4,000  Level Fort Worth Center
05:34PM 32.4925 -96.8236 17° North 281 323 4,000  Level Fort Worth Center
05:35PM 32.5719 -96.7986 15° North 280 322 4,000  Level Fort Worth Center
05:36PM 32.6464 -96.7756 15° North 278 320 4,000 -300 Level Fort Worth Center
05:37PM 32.7167 -96.7500 17° North 267 307 3,500 -300 Descending Dallas / Fort Worth TRACON
05:38PM 32.7833 -96.7500 360° North 253 291 3,500 -300 Level Dallas / Fort Worth TRACON
05:39PM 32.8500 -96.7833 337° Northwest 200 230 3,000 -600 Descending Dallas / Fort Worth TRACON
05:40PM 32.8833 -96.8000 337° Northwest 136 157 2,400 -720 Descending Dallas / Fort Worth TRACON
05:41PM 32.9167 -96.8167 337° Northwest 139 160 1,600 -840 Descending Dallas / Fort Worth TRACON
05:42PM 32.9500 -96.8333 337° Northwest 134 154 800 -840 Descending Dallas / Fort Worth TRACON